createdAt,value
2019-05-23T00:04:17.889Z,11.58
2019-05-23T00:09:20.022Z,11.53
2019-05-23T00:14:36.721Z,11.47
2019-05-23T00:19:40.390Z,11.43
2019-05-23T00:24:44.012Z,11.38
2019-05-23T00:29:46.456Z,11.30
2019-05-23T00:34:50.767Z,11.24
2019-05-23T00:39:52.476Z,11.23
2019-05-23T00:44:54.154Z,11.22
2019-05-23T00:49:55.786Z,11.20
2019-05-23T00:55:00.573Z,11.21
2019-05-23T01:00:04.464Z,11.15
2019-05-23T01:05:06.297Z,11.01
2019-05-23T01:10:08.048Z,11.04
2019-05-23T01:15:10.093Z,11.11
2019-05-23T01:20:16.348Z,11.13
2019-05-23T01:25:18.629Z,11.17
2019-05-23T01:30:23.197Z,11.20
2019-05-23T01:35:25.296Z,11.23
2019-05-23T01:40:26.952Z,11.22
2019-05-23T01:45:29.809Z,11.22
2019-05-23T01:50:31.937Z,11.22
2019-05-23T01:55:33.689Z,11.16
2019-05-23T02:00:35.357Z,11.08
2019-05-23T02:05:37.495Z,11.04
2019-05-23T02:10:39.153Z,10.94
2019-05-23T02:15:40.888Z,10.94
2019-05-23T02:20:43.029Z,10.95
2019-05-23T02:25:45.385Z,10.94
2019-05-23T02:30:47.949Z,10.94
2019-05-23T02:35:49.603Z,10.90
2019-05-23T02:41:17.106Z,10.85
2019-05-23T02:46:29.045Z,10.80
2019-05-23T02:51:35.047Z,10.77
2019-05-23T02:56:37.860Z,10.81
2019-05-23T03:01:55.957Z,10.81
2019-05-23T03:07:00.722Z,10.81
2019-05-23T03:12:03.525Z,10.80
2019-05-23T03:17:07.427Z,10.79
2019-05-23T03:22:30.176Z,10.81
2019-05-23T03:27:35.738Z,10.81
2019-05-23T03:32:52.902Z,10.82
2019-05-23T03:37:54.570Z,10.82
2019-05-23T03:42:56.434Z,10.84
2019-05-23T03:47:58.801Z,10.86
2019-05-23T03:53:00.633Z,10.92
2019-05-23T03:58:02.357Z,10.93
2019-05-23T04:03:05.650Z,10.93
2019-05-23T04:08:09.228Z,10.92
2019-05-23T04:13:10.992Z,10.94
2019-05-23T04:18:12.537Z,10.99
2019-05-23T04:23:14.294Z,11.02
2019-05-23T04:28:16.387Z,11.06
2019-05-23T04:33:18.217Z,11.10
2019-05-23T04:38:20.165Z,11.18
2019-05-23T04:43:21.876Z,11.23
2019-05-23T04:48:23.604Z,11.26
2019-05-23T04:53:25.268Z,11.32
2019-05-23T04:58:26.909Z,11.42
2019-05-23T05:03:29.687Z,11.51
2019-05-23T05:08:31.242Z,11.50
2019-05-23T05:13:33.007Z,11.51
2019-05-23T05:18:34.714Z,11.53
2019-05-23T05:23:36.790Z,11.65
2019-05-23T05:28:38.445Z,11.69
2019-05-23T05:33:39.976Z,11.68
2019-05-23T05:38:41.917Z,11.76
2019-05-23T05:43:43.781Z,11.96
2019-05-23T05:48:46.008Z,12.12
2019-05-23T05:53:47.773Z,12.18
2019-05-23T05:58:49.495Z,12.27
2019-05-23T06:03:51.854Z,12.24
2019-05-23T06:08:56.310Z,12.39
2019-05-23T06:13:57.991Z,12.45
2019-05-23T06:19:00.160Z,12.52
2019-05-23T06:24:01.844Z,12.57
2019-05-23T06:29:03.814Z,12.66
2019-05-23T06:34:06.477Z,12.75
2019-05-23T06:39:08.629Z,12.68
2019-05-23T06:44:10.498Z,12.84
2019-05-23T06:49:12.305Z,12.98
2019-05-23T06:54:13.922Z,13.03
2019-05-23T06:59:15.569Z,13.08
2019-05-23T07:04:17.575Z,13.18
2019-05-23T07:09:19.338Z,13.20
2019-05-23T07:14:21.203Z,13.26
2019-05-23T07:19:22.936Z,13.32
2019-05-23T07:24:24.776Z,13.42
2019-05-23T07:29:26.323Z,13.46
2019-05-23T07:34:28.091Z,13.50
2019-05-23T07:39:29.873Z,13.56
2019-05-23T07:44:45.944Z,13.66
2019-05-23T07:49:35.204Z,13.74
2019-05-23T07:54:59.478Z,13.85
2019-05-23T08:00:03.718Z,13.93
2019-05-23T08:05:06.540Z,13.99
2019-05-23T08:10:08.616Z,14.13
2019-05-23T08:15:10.522Z,14.26
2019-05-23T08:20:12.443Z,14.42
2019-05-23T08:25:14.254Z,14.49
2019-05-23T08:30:16.436Z,14.77
2019-05-23T08:35:18.256Z,15.15
2019-05-23T08:40:22.090Z,15.31
2019-05-23T08:45:23.738Z,15.10
2019-05-23T08:50:25.402Z,15.09
2019-05-23T08:55:27.358Z,14.89
2019-05-23T09:00:29.378Z,15.04
2019-05-23T09:05:32.279Z,15.41
2019-05-23T09:10:35.539Z,15.83
2019-05-23T09:15:37.308Z,15.79
2019-05-23T09:20:38.987Z,15.84
2019-05-23T09:25:40.875Z,15.90
2019-05-23T09:30:42.478Z,15.76
2019-05-23T09:35:44.134Z,15.97
2019-05-23T09:40:46.420Z,16.26
2019-05-23T09:45:48.009Z,16.11
2019-05-23T09:50:49.776Z,16.42
2019-05-23T09:55:51.600Z,16.49
2019-05-23T10:00:53.303Z,16.50
2019-05-23T10:05:55.094Z,16.57
2019-05-23T10:10:56.742Z,16.71
2019-05-23T10:16:09.441Z,16.78
2019-05-23T10:21:11.506Z,16.86
2019-05-23T10:26:13.166Z,16.96
2019-05-23T10:31:14.842Z,17.00
2019-05-23T10:36:16.416Z,17.05
2019-05-23T10:41:19.269Z,17.12
2019-05-23T10:46:21.017Z,17.24
2019-05-23T10:51:22.716Z,17.44
2019-05-23T10:56:24.314Z,17.68
2019-05-23T11:01:25.963Z,17.80
2019-05-23T11:06:27.657Z,17.83
2019-05-23T11:11:29.388Z,18.00
2019-05-23T11:16:31.173Z,18.25
2019-05-23T11:21:32.824Z,18.46
2019-05-23T11:26:34.506Z,18.71
2019-05-23T11:31:36.056Z,19.08
2019-05-23T11:36:38.302Z,19.35
2019-05-23T11:41:39.972Z,19.53
2019-05-23T11:46:41.831Z,19.57
2019-05-23T11:51:43.617Z,19.68
2019-05-23T11:56:45.743Z,19.68
2019-05-23T12:02:05.737Z,19.88
2019-05-23T12:07:12.322Z,19.91
2019-05-23T12:12:14.157Z,20.09
2019-05-23T12:17:17.002Z,20.68
2019-05-23T12:22:19.058Z,20.92
2019-05-23T12:27:21.129Z,21.20
2019-05-23T12:32:22.880Z,22.69
2019-05-23T12:37:25.173Z,26.91
2019-05-23T12:42:26.741Z,27.25
2019-05-23T12:47:36.922Z,32.66
2019-05-23T12:52:38.681Z,35.16
2019-05-23T12:57:40.315Z,32.36
2019-05-23T13:02:41.852Z,28.22
2019-05-23T13:07:43.524Z,27.48
2019-05-23T13:12:45.227Z,34.81
2019-05-23T13:17:46.913Z,33.48
2019-05-23T13:22:48.431Z,29.38
2019-05-23T13:27:49.983Z,29.80
2019-05-23T13:32:51.731Z,30.70
2019-05-23T13:37:54.429Z,28.38
2019-05-23T13:42:56.621Z,30.09
2019-05-23T13:47:58.432Z,32.46
2019-05-23T13:53:01.569Z,34.21
2019-05-23T13:58:03.580Z,29.36
2019-05-23T14:03:06.678Z,27.16
2019-05-23T14:08:12.733Z,26.52
2019-05-23T14:13:11.821Z,26.72
2019-05-23T14:18:17.315Z,30.49
2019-05-23T14:23:23.861Z,31.25
2019-05-23T14:28:27.298Z,34.70
2019-05-23T14:33:36.924Z,38.95
2019-05-23T14:38:39.099Z,36.94
2019-05-23T14:43:41.249Z,34.50
2019-05-23T14:48:57.628Z,36.26
2019-05-23T14:54:13.456Z,37.48
2019-05-23T14:59:15.040Z,40.98
2019-05-23T15:04:17.113Z,41.92
2019-05-23T15:09:21.249Z,42.37
2019-05-23T15:14:22.243Z,43.23
2019-05-23T15:19:40.014Z,43.07
2019-05-23T15:24:28.378Z,43.22
2019-05-23T15:29:32.122Z,43.55
2019-05-23T15:34:35.073Z,44.28
2019-05-23T15:39:37.240Z,45.01
2019-05-23T15:44:38.817Z,46.15
2019-05-23T15:49:42.372Z,46.63
2019-05-23T15:54:48.563Z,46.85
2019-05-23T15:59:57.715Z,46.42
2019-05-23T16:05:02.243Z,45.52
2019-05-23T16:10:04.865Z,44.69
2019-05-23T16:15:06.919Z,45.32
2019-05-23T16:20:08.761Z,40.32
2019-05-23T16:25:10.413Z,36.23
2019-05-23T16:30:12.765Z,38.63
2019-05-23T16:35:14.433Z,32.17
2019-05-23T16:40:18.825Z,30.56
2019-05-23T16:45:20.497Z,28.22
2019-05-23T16:50:22.411Z,28.20
2019-05-23T16:55:32.481Z,27.19
2019-05-23T17:01:00.890Z,27.17
2019-05-23T17:06:37.803Z,28.20
2019-05-23T17:12:14.293Z,27.42
2019-05-23T17:18:00.022Z,26.88
2019-05-23T17:22:50.367Z,26.26
2019-05-23T17:28:03.376Z,25.45
2019-05-23T17:33:06.819Z,25.29
2019-05-23T17:38:08.460Z,25.59
2019-05-23T17:43:10.113Z,25.58
2019-05-23T17:48:12.430Z,25.52
2019-05-23T17:53:14.099Z,24.96
2019-05-23T17:58:16.905Z,25.05
2019-05-23T18:03:19.865Z,24.94
2019-05-23T18:08:22.608Z,24.14
2019-05-23T18:13:24.765Z,23.57
2019-05-23T18:18:26.525Z,23.27
2019-05-23T18:23:28.356Z,22.50
2019-05-23T18:28:30.027Z,21.89
2019-05-23T18:33:31.898Z,21.58
2019-05-23T18:38:33.424Z,21.96
2019-05-23T18:43:36.376Z,21.78
2019-05-23T18:48:38.268Z,21.43
2019-05-23T18:53:39.965Z,20.85
2019-05-23T18:58:41.623Z,20.38
2019-05-23T19:03:43.793Z,19.99
2019-05-23T19:08:46.067Z,19.72
2019-05-23T19:13:47.746Z,19.47
2019-05-23T19:18:49.925Z,19.25
2019-05-23T19:23:51.488Z,19.07
2019-05-23T19:28:53.554Z,18.91
2019-05-23T19:33:55.552Z,18.79
2019-05-23T19:38:57.252Z,18.57
2019-05-23T19:43:58.903Z,18.40
2019-05-23T19:49:00.779Z,18.26
2019-05-23T19:54:02.910Z,18.10
2019-05-23T19:59:04.592Z,18.00
2019-05-23T20:04:07.844Z,17.87
2019-05-23T20:09:12.620Z,17.82
2019-05-23T20:14:14.197Z,17.71
2019-05-23T20:19:15.839Z,17.61
2019-05-23T20:24:17.563Z,17.49
2019-05-23T20:29:19.207Z,17.41
2019-05-23T20:34:20.872Z,17.33
2019-05-23T20:39:23.519Z,17.13
2019-05-23T20:44:25.184Z,17.10
2019-05-23T20:49:27.440Z,16.94
2019-05-23T20:54:29.300Z,16.82
2019-05-23T20:59:30.856Z,16.78
2019-05-23T21:04:32.736Z,16.78
2019-05-23T21:09:34.326Z,16.73
2019-05-23T21:14:35.998Z,16.67
2019-05-23T21:19:37.674Z,16.61
2019-05-23T21:24:39.235Z,16.53
2019-05-23T21:29:40.822Z,16.41
2019-05-23T21:34:42.390Z,16.33
2019-05-23T21:39:43.957Z,16.27
2019-05-23T21:44:45.488Z,16.21
2019-05-23T21:49:47.381Z,16.13
2019-05-23T21:54:48.993Z,16.05
2019-05-23T21:59:50.662Z,15.97
2019-05-23T22:05:01.288Z,15.98
2019-05-23T22:10:04.287Z,15.93
2019-05-23T22:15:05.977Z,15.88
2019-05-23T22:20:07.579Z,15.85
2019-05-23T22:25:13.072Z,15.77
2019-05-23T22:30:14.770Z,15.56
2019-05-23T22:35:19.180Z,15.50
2019-05-23T22:40:20.745Z,15.46
2019-05-23T22:45:25.064Z,15.40
2019-05-23T22:50:26.848Z,15.38
2019-05-23T22:55:28.757Z,15.38
2019-05-23T23:00:35.290Z,15.33
2019-05-23T23:05:36.995Z,15.15
2019-05-23T23:10:39.010Z,15.15
2019-05-23T23:15:40.516Z,15.10
2019-05-23T23:20:45.708Z,15.04
2019-05-23T23:25:46.307Z,14.85
2019-05-23T23:30:49.896Z,14.81
2019-05-23T23:35:51.442Z,14.87
2019-05-23T23:40:52.980Z,14.84
2019-05-23T23:46:12.924Z,14.81
2019-05-23T23:51:32.586Z,14.78
2019-05-23T23:56:52.892Z,14.72
